Time;durP1;ratioP1;P1;durP2;ratioP2;P2;SDS_P1;SDS_P2;PMS_P1;PMS_P2;Temp;Humidity;BMP_temperature;BMP_pressure;BME280_temperature;BME280_humidity;BME280_pressure;Samples;Min_cycle;Max_cycle;Signal;HPM_P1;HPM_P2
2022/06/28 00:00:30;;;;;;;63.83;50.10;;;22.60;56.70;;;;;;4960251;28;95180;-66
2022/06/28 00:02:55;;;;;;;63.30;49.95;;;22.60;56.70;;;;;;4958216;28;95879;-67
2022/06/28 00:05:21;;;;;;;64.13;50.17;;;22.60;56.90;;;;;;4964441;28;95112;-66
2022/06/28 00:07:48;;;;;;;63.85;50.10;;;22.60;57.00;;;;;;4969909;28;97709;-66
2022/06/28 00:10:15;;;;;;;63.17;49.92;;;22.60;56.90;;;;;;4962291;28;95497;-67
2022/06/28 00:12:41;;;;;;;63.83;50.10;;;22.50;56.90;;;;;;4965823;28;95589;-67
2022/06/28 00:17:54;;;;;;;63.63;49.90;;;22.60;57.00;;;;;;4963383;28;96850;-69
2022/06/28 00:20:20;;;;;;;63.88;50.00;;;22.50;57.00;;;;;;4959272;28;96399;-68
2022/06/28 00:22:46;;;;;;;63.70;50.10;;;22.50;57.10;;;;;;4943276;28;95710;-71
2022/06/28 00:25:12;;;;;;;63.30;49.95;;;22.50;57.20;;;;;;4965137;28;95383;-69
2022/06/28 00:27:39;;;;;;;63.42;49.97;;;22.40;57.30;;;;;;4961126;28;95060;-70
2022/06/28 00:30:05;;;;;;;64.15;49.92;;;22.40;57.40;;;;;;4963005;28;95089;-67
2022/06/28 00:32:32;;;;;;;64.05;50.05;;;22.40;57.40;;;;;;4963881;28;99690;-66
2022/06/28 00:34:58;;;;;;;62.65;49.88;;;22.40;57.40;;;;;;4947861;28;95481;-71
2022/06/28 00:37:24;;;;;;;62.80;49.70;;;22.50;57.50;;;;;;4965236;28;101153;-68
2022/06/28 00:39:49;;;;;;;63.53;50.00;;;22.40;57.40;;;;;;4964544;28;96755;-66
2022/06/28 00:42:16;;;;;;;63.25;49.92;;;22.40;57.50;;;;;;4961161;28;96306;-67
2022/06/28 00:44:42;;;;;;;63.55;49.85;;;22.40;57.50;;;;;;4965488;28;96764;-66
2022/06/28 00:47:09;;;;;;;63.30;49.95;;;22.30;57.60;;;;;;4957953;28;96149;-67
2022/06/28 00:49:39;;;;;;;63.42;50.03;;;22.40;57.60;;;;;;4966265;28;95435;-68
2022/06/28 00:52:05;;;;;;;62.87;49.70;;;22.30;57.70;;;;;;4964194;28;96110;-65
2022/06/28 00:54:31;;;;;;;63.80;49.83;;;22.30;57.60;;;;;;4961456;28;95195;-71
2022/06/28 00:56:57;;;;;;;63.78;50.20;;;22.30;57.70;;;;;;4943249;28;97568;-66
2022/06/28 00:59:23;;;;;;;64.07;49.72;;;22.30;57.70;;;;;;4962151;28;94941;-71
2022/06/28 01:01:49;;;;;;;63.13;50.10;;;22.30;57.70;;;;;;4957753;28;97424;-69
2022/06/28 01:04:14;;;;;;;64.40;49.95;;;22.40;57.70;;;;;;4950177;28;99196;-66
2022/06/28 01:06:40;;;;;;;62.67;49.47;;;22.30;57.70;;;;;;4967073;28;95857;-65
2022/06/28 01:09:06;;;;;;;62.60;49.78;;;22.30;57.80;;;;;;4964138;28;95213;-68
2022/06/28 01:11:32;;;;;;;63.05;49.65;;;22.30;57.80;;;;;;4970270;28;95058;-66
2022/06/28 01:14:07;;;;;;;63.33;50.03;;;22.30;57.90;;;;;;4942115;28;97234;-68
2022/06/28 01:16:34;;;;;;;65.80;49.95;;;22.30;58.00;;;;;;4965264;28;94905;-65
2022/06/28 01:19:00;;;;;;;62.83;49.75;;;22.20;58.00;;;;;;4942688;28;95163;-67
2022/06/28 01:21:29;;;;;;;63.20;49.85;;;22.20;58.20;;;;;;4963211;28;95498;-69
2022/06/28 01:23:56;;;;;;;63.35;49.95;;;22.20;58.30;;;;;;4967691;28;96274;-65
2022/06/28 01:26:23;;;;;;;63.83;49.90;;;22.20;58.20;;;;;;4964386;28;95525;-67
2022/06/28 01:28:50;;;;;;;62.65;49.72;;;22.20;58.10;;;;;;4960492;28;97651;-72
2022/06/28 01:31:21;;;;;;;63.20;49.88;;;22.20;58.20;;;;;;4965341;28;101190;-68
2022/06/28 01:33:47;;;;;;;62.42;49.60;;;22.20;58.30;;;;;;4957149;28;96333;-66
2022/06/28 01:36:13;;;;;;;62.95;49.78;;;22.20;58.20;;;;;;4967591;28;95745;-69
2022/06/28 01:38:42;;;;;;;63.67;49.95;;;22.20;58.20;;;;;;4963941;28;99424;-70
2022/06/28 01:41:08;;;;;;;63.22;49.85;;;22.20;58.20;;;;;;4964117;28;96883;-67
2022/06/28 01:43:36;;;;;;;65.05;49.95;;;22.20;58.30;;;;;;4957572;28;95503;-67
2022/06/28 01:46:06;;;;;;;62.72;49.65;;;22.20;58.30;;;;;;4958932;28;94837;-66
2022/06/28 01:48:34;;;;;;;63.45;49.92;;;22.20;58.30;;;;;;4954846;28;95070;-69
2022/06/28 01:51:00;;;;;;;62.92;49.67;;;22.10;58.30;;;;;;4959231;28;96119;-68
2022/06/28 01:53:26;;;;;;;63.67;49.97;;;22.10;58.30;;;;;;4960884;28;96556;-68
2022/06/28 01:55:51;;;;;;;64.18;49.92;;;22.10;58.40;;;;;;4955996;28;97486;-66
2022/06/28 01:58:17;;;;;;;63.13;49.92;;;22.10;58.50;;;;;;4965757;28;96780;-66
2022/06/28 02:00:43;;;;;;;63.17;49.88;;;22.10;58.50;;;;;;4964504;28;94846;-69
2022/06/28 02:03:09;;;;;;;63.72;50.05;;;22.10;58.50;;;;;;4960329;28;96247;-68
2022/06/28 02:05:35;;;;;;;63.70;49.67;;;22.10;58.40;;;;;;4958260;28;95469;-66
2022/06/28 02:08:01;;;;;;;63.70;49.85;;;22.10;58.60;;;;;;4959145;28;95971;-71
2022/06/28 02:10:27;;;;;;;63.75;49.95;;;22.10;58.60;;;;;;4970197;28;97082;-67
2022/06/28 02:12:53;;;;;;;63.92;49.85;;;22.10;58.60;;;;;;4965572;28;98899;-66
2022/06/28 02:15:19;;;;;;;62.47;49.63;;;22.10;58.60;;;;;;4964118;28;95687;-67
2022/06/28 02:17:45;;;;;;;63.20;49.65;;;22.10;58.60;;;;;;4970293;28;101915;-68
2022/06/28 02:20:12;;;;;;;62.83;49.83;;;22.10;58.60;;;;;;4954413;28;98783;-68
2022/06/28 02:22:38;;;;;;;63.05;49.80;;;22.00;58.60;;;;;;4964616;28;100248;-68
2022/06/28 02:25:04;;;;;;;63.15;49.83;;;22.10;58.70;;;;;;4970451;28;96677;-69
2022/06/28 02:27:30;;;;;;;63.65;49.75;;;22.10;58.70;;;;;;4967246;28;95551;-67
2022/06/28 02:29:55;;;;;;;63.55;49.67;;;22.10;58.80;;;;;;4958987;28;96648;-68
2022/06/28 02:32:21;;;;;;;63.05;49.70;;;22.00;58.70;;;;;;4965958;28;95154;-65
2022/06/28 02:40:21;;;;;;;62.38;49.63;;;22.00;58.80;;;;;;4961218;28;101174;-72
2022/06/28 02:42:53;;;;;;;63.55;49.50;;;22.00;58.90;;;;;;4965530;28;97554;-66
2022/06/28 02:45:22;;;;;;;62.45;49.55;;;22.00;58.80;;;;;;4967834;28;96329;-68
2022/06/28 02:47:48;;;;;;;62.83;49.65;;;22.00;58.90;;;;;;4964220;28;96259;-67
2022/06/28 02:50:14;;;;;;;63.50;49.83;;;21.90;58.80;;;;;;4963037;28;96341;-66
2022/06/28 02:52:40;;;;;;;63.53;49.67;;;22.00;58.90;;;;;;4965422;28;97471;-66
2022/06/28 02:55:07;;;;;;;62.60;49.55;;;22.00;58.90;;;;;;4969155;28;96183;-66
2022/06/28 02:57:33;;;;;;;63.50;49.40;;;21.90;58.90;;;;;;4966324;28;95194;-66
2022/06/28 02:59:59;;;;;;;62.63;49.65;;;21.90;58.90;;;;;;4966381;28;99778;-67
2022/06/28 03:02:25;;;;;;;63.10;49.83;;;21.90;58.90;;;;;;4962952;28;95215;-71
2022/06/28 03:04:51;;;;;;;62.42;49.55;;;21.90;58.90;;;;;;4965101;28;96702;-67
2022/06/28 03:07:17;;;;;;;62.30;49.75;;;21.90;59.10;;;;;;4959984;28;98085;-67
2022/06/28 03:09:42;;;;;;;62.38;49.55;;;21.90;59.10;;;;;;4968588;28;95177;-66
2022/06/28 03:12:08;;;;;;;63.05;49.90;;;21.90;59.00;;;;;;4970789;28;97096;-66
2022/06/28 03:14:34;;;;;;;62.60;49.45;;;21.90;59.00;;;;;;4962534;28;95043;-69
2022/06/28 03:17:00;;;;;;;63.25;49.67;;;21.80;59.20;;;;;;4965710;28;97532;-70
2022/06/28 03:19:25;;;;;;;62.72;49.72;;;21.80;59.20;;;;;;4964317;28;99708;-67
2022/06/28 03:21:51;;;;;;;62.65;49.67;;;21.80;59.20;;;;;;4961674;28;96482;-67
2022/06/28 03:24:17;;;;;;;62.97;49.63;;;21.80;59.30;;;;;;4963865;28;95278;-69
2022/06/28 03:26:43;;;;;;;62.55;49.58;;;21.80;59.30;;;;;;4964128;28;96750;-66
2022/06/28 03:29:08;;;;;;;62.28;49.50;;;21.80;59.30;;;;;;4931581;28;95317;-69
2022/06/28 03:31:34;;;;;;;62.97;49.75;;;21.80;59.40;;;;;;4947422;28;95988;-67
2022/06/28 03:34:00;;;;;;;62.70;49.63;;;21.70;59.50;;;;;;4946567;28;96388;-65
2022/06/28 03:36:26;;;;;;;62.67;49.65;;;21.70;59.40;;;;;;4944728;28;96061;-72
2022/06/28 03:38:51;;;;;;;62.67;49.65;;;21.70;59.40;;;;;;4950516;28;95249;-66
2022/06/28 03:41:22;;;;;;;62.40;49.55;;;21.70;59.50;;;;;;4948773;28;97104;-67
2022/06/28 03:43:52;;;;;;;63.00;49.73;;;21.70;59.50;;;;;;4952979;28;97133;-66
2022/06/28 03:46:18;;;;;;;63.25;49.95;;;21.70;59.50;;;;;;4946237;28;95392;-68
2022/06/28 03:48:45;;;;;;;63.10;49.65;;;21.70;59.60;;;;;;4946697;28;96136;-65
2022/06/28 03:51:12;;;;;;;63.53;49.75;;;21.70;59.60;;;;;;4952507;28;94989;-67
2022/06/28 03:53:38;;;;;;;63.67;49.65;;;21.70;59.60;;;;;;4941199;28;95789;-72
2022/06/28 03:56:04;;;;;;;62.38;49.55;;;21.70;59.50;;;;;;4946813;28;96777;-66
2022/06/28 03:58:30;;;;;;;62.50;49.65;;;21.60;59.60;;;;;;4947524;28;95798;-70
2022/06/28 04:00:55;;;;;;;63.38;49.58;;;21.60;59.70;;;;;;4938400;28;96176;-69
2022/06/28 04:03:21;;;;;;;62.60;49.65;;;21.60;59.70;;;;;;4939981;28;98327;-65
2022/06/28 04:05:47;;;;;;;63.58;49.63;;;21.60;59.50;;;;;;4946549;28;96134;-67
2022/06/28 04:08:13;;;;;;;63.10;49.63;;;21.70;59.70;;;;;;4953058;28;94968;-68
2022/06/28 04:10:39;;;;;;;62.25;49.65;;;21.70;59.70;;;;;;4951185;28;95802;-67
2022/06/28 04:13:04;;;;;;;62.75;49.85;;;21.70;59.70;;;;;;4952341;28;96073;-68
2022/06/28 04:15:30;;;;;;;65.00;49.72;;;21.60;59.70;;;;;;4944494;28;96072;-67
2022/06/28 04:17:56;;;;;;;61.78;49.25;;;21.70;59.80;;;;;;4933693;28;98687;-65
2022/06/28 04:20:22;;;;;;;63.03;49.75;;;21.60;59.70;;;;;;4951064;28;96187;-70
2022/06/28 04:22:47;;;;;;;63.47;49.75;;;21.60;59.80;;;;;;4950781;28;95961;-68
2022/06/28 04:25:13;;;;;;;63.00;49.67;;;21.70;59.80;;;;;;4951320;28;96598;-72
2022/06/28 04:27:39;;;;;;;63.17;49.83;;;21.60;59.80;;;;;;4951774;28;95241;-69
2022/06/28 04:30:05;;;;;;;62.83;49.70;;;21.70;59.70;;;;;;4964803;28;95085;-66
2022/06/28 04:32:30;;;;;;;64.90;49.65;;;21.60;59.70;;;;;;4964976;28;94786;-67
2022/06/28 04:34:57;;;;;;;63.03;49.83;;;21.70;59.70;;;;;;4968982;28;95364;-67
2022/06/28 04:37:23;;;;;;;62.65;49.88;;;21.60;59.80;;;;;;4966905;28;94200;-66
2022/06/28 04:39:49;;;;;;;62.70;49.53;;;21.60;60.00;;;;;;4966774;28;95227;-66
2022/06/28 04:42:14;;;;;;;63.22;49.65;;;21.70;60.00;;;;;;4962491;28;95547;-72
2022/06/28 04:44:41;;;;;;;63.13;49.83;;;21.70;59.90;;;;;;4972124;28;96114;-67
2022/06/28 04:47:08;;;;;;;65.10;49.72;;;21.60;59.90;;;;;;4958530;28;96833;-66
2022/06/28 04:49:34;;;;;;;62.70;49.65;;;21.50;60.10;;;;;;4965446;28;95242;-70
2022/06/28 04:51:59;;;;;;;62.63;49.65;;;21.50;60.00;;;;;;4965038;28;95527;-66
2022/06/28 04:54:25;;;;;;;62.75;49.75;;;21.50;60.20;;;;;;4972172;28;95804;-66
2022/06/28 04:56:52;;;;;;;66.85;49.80;;;21.60;60.20;;;;;;4968577;28;95341;-68
2022/06/28 04:59:18;;;;;;;64.65;49.72;;;21.60;60.10;;;;;;4969181;28;95786;-66
2022/06/28 05:01:44;;;;;;;62.83;49.80;;;21.60;60.20;;;;;;4965473;28;95240;-67
2022/06/28 05:04:09;;;;;;;64.07;49.95;;;21.50;60.30;;;;;;4970785;28;95162;-68
2022/06/28 05:06:35;;;;;;;63.92;50.00;;;21.60;60.30;;;;;;4952120;28;95646;-67
2022/06/28 05:09:01;;;;;;;64.15;49.95;;;21.60;60.20;;;;;;4966129;28;96234;-68
2022/06/28 05:11:26;;;;;;;65.60;50.00;;;21.60;60.40;;;;;;4962414;28;96635;-71
2022/06/28 05:13:52;;;;;;;64.93;50.22;;;21.60;60.60;;;;;;4967673;28;96736;-65
2022/06/28 05:16:18;;;;;;;63.20;49.92;;;21.60;60.80;;;;;;4952496;28;96756;-66
2022/06/28 05:18:43;;;;;;;64.60;49.97;;;21.70;60.70;;;;;;4971206;28;95300;-66
2022/06/28 05:21:09;;;;;;;65.35;50.28;;;21.70;60.60;;;;;;4966643;28;95108;-66
2022/06/28 05:23:37;;;;;;;63.45;49.97;;;21.70;60.60;;;;;;4966564;28;96765;-67
2022/06/28 05:26:03;;;;;;;67.07;50.35;;;21.70;60.70;;;;;;4969065;28;94204;-69
2022/06/28 05:28:28;;;;;;;65.32;50.15;;;21.80;60.90;;;;;;4967241;28;95386;-67
2022/06/28 05:30:54;;;;;;;66.35;50.22;;;21.70;61.10;;;;;;4975010;28;95375;-67
2022/06/28 05:33:21;;;;;;;64.57;50.17;;;21.70;61.00;;;;;;4960134;28;97319;-67
2022/06/28 05:35:46;;;;;;;66.38;50.40;;;21.80;61.10;;;;;;4948844;28;95228;-66
2022/06/28 05:38:12;;;;;;;65.45;50.20;;;21.80;61.10;;;;;;4955845;28;95816;-68
2022/06/28 05:40:38;;;;;;;65.60;50.63;;;21.70;61.40;;;;;;4969097;28;96508;-66
2022/06/28 05:43:03;;;;;;;67.20;50.55;;;21.70;61.60;;;;;;4949751;28;94919;-65
2022/06/28 05:45:29;;;;;;;66.55;50.60;;;21.70;61.50;;;;;;4972128;28;95289;-68
2022/06/28 05:47:55;;;;;;;67.85;50.85;;;21.70;61.80;;;;;;4971118;28;94937;-66
2022/06/28 05:50:20;;;;;;;65.47;50.72;;;21.70;62.10;;;;;;4975414;28;99494;-67
2022/06/28 05:52:47;;;;;;;66.75;50.60;;;21.70;62.30;;;;;;4971139;28;99650;-68
2022/06/28 05:55:13;;;;;;;68.70;50.97;;;21.60;62.30;;;;;;4972097;28;94989;-66
2022/06/28 05:57:39;;;;;;;66.72;50.25;;;21.70;63.00;;;;;;4968318;28;95809;-66
2022/06/28 06:00:06;;;;;;;65.28;50.33;;;21.70;62.10;;;;;;4977456;28;99536;-66
2022/06/28 06:02:31;;;;;;;66.22;51.05;;;21.60;62.00;;;;;;4967132;28;95081;-66
2022/06/28 06:04:59;;;;;;;67.43;50.92;;;21.60;62.10;;;;;;4968958;28;94999;-70
2022/06/28 06:07:25;;;;;;;65.80;50.75;;;21.60;62.00;;;;;;4965513;28;96561;-67
2022/06/28 06:09:51;;;;;;;65.05;50.70;;;21.60;62.00;;;;;;4953311;28;96652;-67
2022/06/28 06:12:17;;;;;;;68.38;51.00;;;21.60;61.90;;;;;;4955116;28;95095;-67
2022/06/28 06:14:43;;;;;;;65.78;50.47;;;21.60;61.90;;;;;;4973584;28;94363;-67
2022/06/28 06:17:09;;;;;;;66.88;50.83;;;21.70;62.00;;;;;;4968000;28;95658;-68
2022/06/28 06:19:34;;;;;;;64.85;50.38;;;21.70;62.10;;;;;;4969724;28;95526;-68
2022/06/28 06:22:00;;;;;;;66.15;50.50;;;21.70;62.20;;;;;;4971696;28;96070;-66
2022/06/28 06:24:26;;;;;;;67.60;50.65;;;21.70;62.10;;;;;;4968765;28;96992;-69
2022/06/28 06:26:52;;;;;;;65.80;50.55;;;21.70;62.10;;;;;;4970425;28;95205;-65
2022/06/28 06:29:17;;;;;;;66.72;50.85;;;21.70;62.10;;;;;;4966694;28;94986;-67
2022/06/28 06:31:43;;;;;;;64.35;50.55;;;21.70;62.00;;;;;;4971916;28;95730;-68
2022/06/28 06:34:09;;;;;;;65.60;50.42;;;21.70;61.80;;;;;;4962771;28;95213;-65
2022/06/28 06:36:35;;;;;;;65.90;50.65;;;21.70;61.80;;;;;;4980650;28;95548;-70
2022/06/28 06:39:01;;;;;;;66.22;50.67;;;21.70;61.90;;;;;;4964902;28;97103;-66
2022/06/28 06:41:27;;;;;;;66.00;51.05;;;21.70;61.90;;;;;;4971318;28;95415;-66
2022/06/28 06:43:53;;;;;;;66.13;50.85;;;21.70;61.80;;;;;;4967244;28;95341;-70
2022/06/28 06:46:19;;;;;;;66.90;50.75;;;21.80;61.90;;;;;;4943661;28;97863;-65
2022/06/28 06:48:45;;;;;;;67.72;50.90;;;21.80;61.80;;;;;;4975378;28;96014;-67
2022/06/28 06:51:10;;;;;;;67.03;50.90;;;21.80;61.90;;;;;;4972324;28;96405;-68
2022/06/28 06:53:36;;;;;;;67.05;50.65;;;21.80;62.60;;;;;;4965281;28;100826;-68
2022/06/28 06:56:02;;;;;;;66.03;50.70;;;21.70;61.70;;;;;;4969633;28;95092;-69
2022/06/28 06:58:28;;;;;;;65.60;51.05;;;21.70;61.70;;;;;;4949858;28;96438;-71
2022/06/28 07:00:54;;;;;;;68.07;51.15;;;21.80;61.90;;;;;;4967548;28;95003;-69
2022/06/28 07:03:20;;;;;;;70.32;50.72;;;21.80;61.80;;;;;;4970658;28;94993;-66
2022/06/28 07:05:46;;;;;;;67.13;50.90;;;21.80;61.70;;;;;;4971485;28;95867;-70
2022/06/28 07:08:12;;;;;;;64.80;50.75;;;21.80;61.70;;;;;;4969089;28;94928;-68
2022/06/28 07:10:37;;;;;;;67.75;50.97;;;21.90;61.60;;;;;;4965614;28;95721;-68
2022/06/28 07:13:03;;;;;;;66.90;50.78;;;21.90;61.50;;;;;;4971830;28;95047;-66
2022/06/28 07:15:29;;;;;;;64.95;50.60;;;21.90;61.60;;;;;;4953245;28;96154;-66
2022/06/28 07:17:55;;;;;;;67.13;51.08;;;22.00;61.50;;;;;;4965510;28;95780;-70
2022/06/28 07:20:20;;;;;;;66.10;50.70;;;21.90;61.40;;;;;;4973225;28;95160;-68
2022/06/28 07:22:46;;;;;;;68.07;50.88;;;22.00;61.30;;;;;;4977469;28;95216;-65
2022/06/28 07:25:13;;;;;;;64.35;50.67;;;22.00;61.00;;;;;;4967568;28;97196;-67
2022/06/28 07:27:39;;;;;;;66.55;50.63;;;22.00;60.90;;;;;;4975056;28;95764;-71
2022/06/28 07:30:06;;;;;;;65.68;50.83;;;22.10;60.90;;;;;;4968053;28;95103;-70
2022/06/28 07:32:32;;;;;;;65.45;50.60;;;22.10;60.60;;;;;;4969824;28;95662;-66
2022/06/28 07:34:57;;;;;;;64.55;50.45;;;22.20;60.60;;;;;;4960945;28;96547;-66
2022/06/28 07:37:23;;;;;;;66.75;50.75;;;22.10;60.50;;;;;;4975059;28;100191;-70
2022/06/28 07:39:49;;;;;;;66.35;50.78;;;22.10;60.70;;;;;;4947328;28;95571;-67
2022/06/28 07:42:14;;;;;;;65.53;51.05;;;22.10;60.40;;;;;;4975117;28;96956;-68
2022/06/28 07:44:40;;;;;;;66.57;50.53;;;22.20;60.50;;;;;;4969050;28;95650;-67
2022/06/28 07:47:06;;;;;;;64.30;50.40;;;22.20;60.40;;;;;;4972774;28;98143;-66
2022/06/28 07:52:34;;;;;;;65.88;50.70;;;22.30;60.30;;;;;;4977919;28;96495;-69
2022/06/28 07:55:00;;;;;;;65.55;50.55;;;22.40;60.20;;;;;;4968491;28;95466;-68
2022/06/28 07:57:27;;;;;;;65.40;50.75;;;22.40;59.80;;;;;;4973081;28;95543;-69
2022/06/28 07:59:53;;;;;;;65.95;50.70;;;22.50;59.80;;;;;;4971745;28;96151;-65
2022/06/28 08:02:18;;;;;;;64.80;50.35;;;22.50;59.40;;;;;;4962687;28;100990;-66
2022/06/28 08:04:44;;;;;;;65.43;50.83;;;22.60;59.20;;;;;;4966148;28;96911;-72
2022/06/28 08:07:10;;;;;;;64.82;50.53;;;22.70;59.10;;;;;;4971040;28;95382;-66
2022/06/28 08:09:35;;;;;;;66.55;50.90;;;22.70;58.90;;;;;;4966364;28;95970;-65
2022/06/28 08:12:01;;;;;;;66.75;51.05;;;22.70;58.80;;;;;;4968195;28;95547;-68
2022/06/28 08:14:28;;;;;;;64.85;50.60;;;22.80;58.90;;;;;;4973339;28;95219;-69
2022/06/28 08:16:54;;;;;;;67.28;50.85;;;22.80;58.80;;;;;;4970328;28;94329;-68
2022/06/28 08:19:19;;;;;;;65.93;50.85;;;22.80;58.80;;;;;;4965401;28;95399;-66
2022/06/28 08:21:47;;;;;;;66.82;50.92;;;22.80;58.60;;;;;;4969112;28;98116;-68
2022/06/28 08:24:13;;;;;;;67.03;50.85;;;22.90;58.40;;;;;;4962440;28;100577;-66
2022/06/28 08:26:42;;;;;;;65.38;50.65;;;22.90;58.50;;;;;;4965801;28;95783;-69
2022/06/28 08:29:15;;;;;;;66.78;50.78;;;22.90;58.50;;;;;;4968624;28;95840;-66
2022/06/28 08:31:42;;;;;;;66.80;50.85;;;22.90;58.40;;;;;;4968272;28;97342;-67
2022/06/28 08:34:08;;;;;;;65.75;50.85;;;22.90;58.30;;;;;;4970804;28;95333;-70
2022/06/28 08:36:34;;;;;;;67.72;50.67;;;22.90;58.20;;;;;;4963701;28;95692;-69
2022/06/28 08:39:00;;;;;;;64.75;50.55;;;22.90;58.20;;;;;;4971242;28;96007;-66
2022/06/28 08:41:29;;;;;;;65.25;50.30;;;23.00;58.20;;;;;;4964428;28;94153;-67
2022/06/28 08:43:55;;;;;;;65.22;50.72;;;23.00;58.10;;;;;;4972040;28;97834;-67
2022/06/28 08:46:22;;;;;;;67.72;50.60;;;23.00;58.00;;;;;;4970731;28;95594;-66
2022/06/28 08:48:52;;;;;;;65.53;50.55;;;23.10;57.90;;;;;;4977462;28;96026;-67
2022/06/28 08:51:20;;;;;;;66.85;50.70;;;23.10;57.80;;;;;;4965457;28;95566;-66
2022/06/28 08:53:47;;;;;;;64.82;50.75;;;23.20;57.70;;;;;;4971755;28;95913;-66
2022/06/28 08:56:14;;;;;;;65.55;50.45;;;23.20;57.70;;;;;;4964870;28;96117;-68
2022/06/28 08:58:44;;;;;;;65.35;50.85;;;23.20;57.70;;;;;;4974152;28;96969;-66
2022/06/28 09:01:12;;;;;;;65.40;50.85;;;23.20;57.70;;;;;;4962201;28;95196;-66
2022/06/28 09:03:38;;;;;;;64.80;50.67;;;23.10;57.60;;;;;;4972690;28;95307;-69
2022/06/28 09:06:04;;;;;;;65.95;50.88;;;23.20;57.60;;;;;;4967870;28;94494;-66
2022/06/28 09:08:30;;;;;;;65.63;50.60;;;23.20;57.60;;;;;;4968362;28;94964;-66
2022/06/28 09:10:56;;;;;;;64.63;50.65;;;23.20;57.50;;;;;;4963819;28;95527;-69
2022/06/28 09:13:22;;;;;;;65.97;50.75;;;23.20;57.60;;;;;;4967044;28;95659;-71
2022/06/28 09:15:56;;;;;;;65.53;50.97;;;23.20;57.50;;;;;;4967889;28;95628;-69
2022/06/28 09:18:46;;;;;;;66.25;50.65;;;23.20;57.50;;;;;;4973306;28;97573;-66
2022/06/28 09:21:16;;;;;;;66.85;51.00;;;23.20;57.50;;;;;;4965632;28;95026;-66
2022/06/28 09:23:44;;;;;;;65.28;50.63;;;23.20;57.60;;;;;;4969449;28;95462;-67
2022/06/28 09:26:20;;;;;;;64.65;50.38;;;23.20;57.60;;;;;;4968892;28;95288;-66
2022/06/28 09:28:48;;;;;;;65.38;50.55;;;23.20;57.70;;;;;;4970146;28;98039;-70
2022/06/28 09:31:26;;;;;;;65.15;50.55;;;23.20;57.60;;;;;;4975290;28;94295;-68
2022/06/28 09:34:01;;;;;;;64.75;50.63;;;23.20;57.70;;;;;;4973287;28;95757;-68
2022/06/28 09:36:28;;;;;;;67.43;50.85;;;23.30;57.70;;;;;;4968428;28;96250;-68
2022/06/28 09:38:56;;;;;;;66.93;50.78;;;23.20;57.80;;;;;;4968469;28;96766;-67
2022/06/28 09:41:27;;;;;;;65.57;50.75;;;23.20;57.70;;;;;;4968051;28;95522;-65
2022/06/28 09:43:59;;;;;;;68.78;50.63;;;23.20;57.70;;;;;;4967911;28;95416;-67
2022/06/28 09:46:27;;;;;;;65.95;50.90;;;23.20;57.70;;;;;;4969684;28;95552;-70
2022/06/28 09:48:57;;;;;;;66.10;50.88;;;23.20;57.70;;;;;;4970517;28;95020;-69
2022/06/28 09:51:24;;;;;;;66.97;50.67;;;23.20;57.70;;;;;;4966654;28;95252;-67
2022/06/28 09:54:03;;;;;;;65.78;50.65;;;23.20;57.70;;;;;;4967184;28;95464;-65
2022/06/28 09:56:35;;;;;;;65.28;50.85;;;23.20;57.80;;;;;;4968358;28;94990;-66
2022/06/28 09:59:01;;;;;;;66.45;50.67;;;23.20;57.90;;;;;;4969164;28;96323;-68
2022/06/28 10:01:27;;;;;;;66.47;50.78;;;23.20;57.90;;;;;;4965057;28;95396;-64
2022/06/28 10:03:53;;;;;;;65.90;50.75;;;23.20;58.00;;;;;;4967652;28;96228;-66
2022/06/28 10:06:21;;;;;;;64.68;50.55;;;23.20;58.00;;;;;;4947812;28;96914;-66
2022/06/28 10:08:47;;;;;;;65.40;50.75;;;23.20;58.00;;;;;;4965240;28;94802;-67
2022/06/28 10:11:14;;;;;;;66.30;50.92;;;23.30;58.00;;;;;;4970119;28;95152;-65
2022/06/28 10:16:46;;;;;;;66.80;50.90;;;23.20;58.00;;;;;;4968457;28;95058;-66
2022/06/28 10:19:16;;;;;;;65.72;50.65;;;23.30;58.00;;;;;;4969160;28;95053;-70
2022/06/28 10:22:07;;;;;;;65.10;50.73;;;23.30;58.10;;;;;;4963558;28;97049;-66
2022/06/28 10:25:02;;;;;;;65.25;50.83;;;23.30;58.20;;;;;;4953285;28;95511;-66
2022/06/28 10:27:29;;;;;;;65.63;50.83;;;23.30;58.30;;;;;;4957480;28;99955;-65
2022/06/28 10:29:58;;;;;;;65.30;50.83;;;23.20;58.40;;;;;;4968090;28;101348;-65
2022/06/28 10:32:39;;;;;;;68.70;52.20;;;23.20;58.40;;;;;;4967553;28;100465;-65
2022/06/28 10:35:05;;;;;;;72.53;56.15;;;23.30;58.90;;;;;;4969777;28;94825;-64
2022/06/28 10:37:31;;;;;;;75.28;57.10;;;23.30;59.10;;;;;;4964987;28;95262;-64
2022/06/28 10:40:24;;;;;;;77.70;57.78;;;23.30;59.20;;;;;;4969978;28;95147;-68
2022/06/28 10:42:52;;;;;;;74.20;56.85;;;23.30;59.30;;;;;;4968385;28;101944;-65
2022/06/28 10:45:20;;;;;;;72.72;56.67;;;23.30;59.30;;;;;;4973876;28;95165;-66
2022/06/28 10:48:07;;;;;;;73.05;55.53;;;23.30;59.30;;;;;;4965797;28;95293;-67
2022/06/28 10:50:56;;;;;;;72.97;55.33;;;23.40;59.40;;;;;;4974935;28;95119;-66
2022/06/28 10:53:22;;;;;;;69.85;54.65;;;23.40;59.30;;;;;;4963626;28;95672;-66
2022/06/28 10:56:16;;;;;;;71.70;54.47;;;23.30;59.30;;;;;;4974262;28;96231;-67
2022/06/28 10:59:12;;;;;;;71.30;54.05;;;23.40;59.40;;;;;;4969155;28;96194;-67
2022/06/28 11:01:44;;;;;;;70.30;53.75;;;23.40;59.30;;;;;;4952498;28;94756;-66
2022/06/28 11:04:18;;;;;;;69.50;53.67;;;23.40;59.40;;;;;;4970821;28;95079;-65
2022/06/28 11:06:46;;;;;;;68.40;52.88;;;23.40;59.50;;;;;;4966781;28;96895;-68
2022/06/28 11:09:24;;;;;;;68.03;52.80;;;23.40;59.50;;;;;;4967363;28;96356;-67
2022/06/28 11:12:35;;;;;;;69.65;53.33;;;23.40;59.60;;;;;;4968582;28;95597;-66
2022/06/28 11:15:12;;;;;;;71.07;53.30;;;23.40;59.60;;;;;;4972236;28;94219;-66
2022/06/28 11:17:44;;;;;;;72.50;53.28;;;23.50;59.80;;;;;;4968148;28;97137;-65
2022/06/28 11:20:12;;;;;;;68.55;52.60;;;23.50;59.90;;;;;;4972935;28;94984;-67
2022/06/28 11:22:43;;;;;;;69.80;52.33;;;23.40;59.80;;;;;;4970632;28;95706;-64
2022/06/28 11:25:24;;;;;;;69.22;52.40;;;23.50;59.80;;;;;;4963492;28;95272;-67
2022/06/28 11:27:53;;;;;;;68.07;52.58;;;23.50;59.90;;;;;;4971068;28;95811;-65
2022/06/28 11:30:23;;;;;;;68.35;52.28;;;23.50;59.90;;;;;;4970601;28;95114;-69
2022/06/28 11:32:50;;;;;;;68.55;52.25;;;23.50;59.90;;;;;;4965145;28;95872;-65
2022/06/28 11:35:23;;;;;;;69.82;52.35;;;23.50;59.90;;;;;;4966327;28;95525;-66
2022/06/28 11:37:53;;;;;;;69.03;52.45;;;23.50;59.80;;;;;;4967438;28;95884;-67
2022/06/28 11:40:25;;;;;;;68.28;52.15;;;23.50;59.80;;;;;;4962466;28;99849;-65
2022/06/28 11:43:05;;;;;;;69.75;52.28;;;23.50;59.90;;;;;;4964287;28;95232;-65
2022/06/28 11:45:41;;;;;;;68.15;52.22;;;23.60;59.90;;;;;;4965062;28;95114;-65
2022/06/28 11:48:16;;;;;;;67.47;51.85;;;23.60;60.00;;;;;;4969432;28;97178;-65
2022/06/28 11:50:55;;;;;;;67.53;51.72;;;23.60;59.90;;;;;;4967278;28;96355;-65
2022/06/28 11:53:22;;;;;;;68.30;51.72;;;23.60;60.00;;;;;;4964306;28;97088;-66
2022/06/28 11:55:53;;;;;;;67.70;51.72;;;23.60;60.00;;;;;;4974414;28;96127;-69
2022/06/28 11:58:23;;;;;;;67.88;51.78;;;23.60;60.00;;;;;;4967313;28;95338;-66
2022/06/28 12:01:01;;;;;;;67.72;51.90;;;23.60;60.00;;;;;;4961935;28;95654;-65
2022/06/28 12:03:27;;;;;;;68.07;51.70;;;23.60;60.00;;;;;;4966010;28;95322;-67
2022/06/28 12:05:57;;;;;;;67.32;51.83;;;23.60;59.90;;;;;;4970498;28;95562;-66
2022/06/28 12:08:51;;;;;;;68.32;51.67;;;23.60;60.00;;;;;;4964835;28;97163;-66
2022/06/28 12:11:30;;;;;;;67.40;51.67;;;23.60;60.00;;;;;;4968865;28;96007;-67
2022/06/28 12:13:59;;;;;;;68.32;51.80;;;23.60;60.00;;;;;;4969262;28;96491;-65
2022/06/28 12:16:57;;;;;;;67.07;51.58;;;23.70;60.10;;;;;;4973783;28;95437;-67
2022/06/28 12:19:32;;;;;;;66.28;51.42;;;23.70;60.10;;;;;;4960650;28;95482;-68
2022/06/28 12:22:02;;;;;;;68.03;51.60;;;23.70;60.10;;;;;;4968004;28;95249;-66
2022/06/28 12:24:43;;;;;;;67.00;51.33;;;23.70;60.20;;;;;;4967057;28;95651;-69
2022/06/28 12:27:20;;;;;;;71.03;53.38;;;23.70;60.30;;;;;;4974571;28;95219;-68
2022/06/28 12:29:48;;;;;;;70.53;54.63;;;23.70;60.50;;;;;;4963790;28;95770;-64
2022/06/28 12:32:14;;;;;;;76.68;59.95;;;23.70;60.50;;;;;;4974630;28;94883;-65
2022/06/28 12:34:40;;;;;;;83.93;65.38;;;23.80;60.60;;;;;;4981167;28;94892;-70
2022/06/28 12:37:10;;;;;;;88.05;68.38;;;23.80;60.60;;;;;;4974956;28;95143;-65
2022/06/28 12:39:36;;;;;;;89.97;71.28;;;23.80;60.60;;;;;;4964798;28;96647;-65
2022/06/28 12:42:03;;;;;;;92.50;73.45;;;23.80;60.50;;;;;;4972227;28;95031;-68
2022/06/28 12:44:30;;;;;;;90.13;69.70;;;23.80;60.80;;;;;;4965566;28;95206;-65